createdAt,value
2023-02-24T00:01:49.462Z,23.00
2023-02-24T00:04:15.826Z,24.53
2023-02-24T00:06:43.675Z,20.02
2023-02-24T00:09:15.411Z,23.25
2023-02-24T00:11:44.824Z,19.55
2023-02-24T00:14:15.882Z,21.20
2023-02-24T00:16:43.907Z,22.27
2023-02-24T00:19:13.146Z,21.05
2023-02-24T00:21:40.285Z,22.42
2023-02-24T00:24:07.021Z,19.23
2023-02-24T00:26:33.604Z,17.50
2023-02-24T00:29:03.258Z,19.42
2023-02-24T00:31:31.044Z,20.45
2023-02-24T00:33:59.157Z,18.70
2023-02-24T00:36:26.658Z,19.45
2023-02-24T00:38:59.092Z,21.17
2023-02-24T00:41:30.035Z,19.52
2023-02-24T00:43:58.565Z,20.15
2023-02-24T00:46:26.415Z,18.17
2023-02-24T00:48:56.699Z,18.85
2023-02-24T00:51:25.364Z,21.08
2023-02-24T00:53:59.668Z,18.08
2023-02-24T00:56:27.835Z,21.83
2023-02-24T00:58:55.515Z,20.67
2023-02-24T01:01:24.312Z,16.30
2023-02-24T01:03:54.512Z,15.77
2023-02-24T01:06:22.217Z,15.75
2023-02-24T01:08:49.844Z,19.38
2023-02-24T01:11:39.504Z,16.77
2023-02-24T01:14:11.487Z,16.88
2023-02-24T01:16:37.879Z,15.73
2023-02-24T01:19:07.881Z,15.77
2023-02-24T01:21:34.668Z,19.80
2023-02-24T01:24:01.199Z,15.50
2023-02-24T01:26:27.682Z,16.15
2023-02-24T01:28:55.598Z,20.10
2023-02-24T01:31:23.732Z,16.20
2023-02-24T01:33:50.848Z,14.13
2023-02-24T01:36:20.201Z,16.42
2023-02-24T01:38:49.130Z,11.93
2023-02-24T01:41:19.416Z,12.98
2023-02-24T01:44:01.909Z,18.73
2023-02-24T01:46:33.566Z,14.15
2023-02-24T01:56:15.946Z,16.02
2023-02-24T01:58:42.777Z,13.57
2023-02-24T02:01:10.152Z,12.05
2023-02-24T02:03:38.402Z,13.48
2023-02-24T02:06:07.632Z,16.08
2023-02-24T02:08:38.127Z,16.40
2023-02-24T02:11:10.370Z,15.50
2023-02-24T02:13:39.811Z,15.32
2023-02-24T02:16:18.431Z,18.58
2023-02-24T02:18:56.154Z,13.93
2023-02-24T02:21:44.452Z,14.68
2023-02-24T02:24:40.501Z,17.70
2023-02-24T02:27:20.886Z,17.17
2023-02-24T02:30:06.191Z,12.90
2023-02-24T02:33:10.214Z,20.10
2023-02-24T02:36:06.836Z,22.85
2023-02-24T02:38:43.348Z,19.45
2023-02-24T02:41:28.819Z,22.42
2023-02-24T02:44:32.187Z,25.67
2023-02-24T02:47:03.608Z,27.30
2023-02-24T02:49:38.796Z,30.25
2023-02-24T02:52:42.391Z,29.55
2023-02-24T02:55:16.182Z,24.80
2023-02-24T02:57:47.161Z,27.02
2023-02-24T03:00:21.347Z,27.58
2023-02-24T03:02:51.480Z,30.83
2023-02-24T03:05:20.269Z,26.05
2023-02-24T03:07:51.042Z,22.30
2023-02-24T03:10:22.737Z,25.70
2023-02-24T03:12:55.120Z,28.05
2023-02-24T03:15:23.534Z,24.55
2023-02-24T03:17:56.427Z,23.80
2023-02-24T03:20:43.032Z,23.27
2023-02-24T03:23:17.025Z,23.00
2023-02-24T03:26:21.563Z,25.38
2023-02-24T03:29:18.905Z,25.13
2023-02-24T03:31:59.410Z,22.27
2023-02-24T03:34:51.523Z,18.35
2023-02-24T03:37:25.590Z,24.55
2023-02-24T03:42:20.437Z,27.75
2023-02-24T03:44:47.620Z,26.92
2023-02-24T03:47:19.558Z,31.38
2023-02-24T03:49:47.298Z,29.92
2023-02-24T03:52:41.638Z,32.60
2023-02-24T03:55:17.686Z,34.05
2023-02-24T04:02:16.783Z,33.28
2023-02-24T04:04:55.524Z,38.05
2023-02-24T04:07:37.158Z,38.58
2023-02-24T04:10:22.725Z,33.55
2023-02-24T04:12:56.184Z,33.83
2023-02-24T04:15:26.752Z,34.95
2023-02-24T04:18:09.649Z,38.30
2023-02-24T04:20:37.059Z,35.53
2023-02-24T04:23:08.713Z,35.17
2023-02-24T04:25:35.723Z,31.10
2023-02-24T04:28:07.891Z,36.53
2023-02-24T04:30:36.602Z,31.42
2023-02-24T04:33:02.987Z,34.60
2023-02-24T04:35:29.411Z,29.67
2023-02-24T04:37:56.209Z,32.90
2023-02-24T04:40:23.232Z,33.28
2023-02-24T04:42:51.695Z,28.60
2023-02-24T04:45:24.178Z,29.92
2023-02-24T04:47:56.001Z,29.77
2023-02-24T04:50:25.103Z,31.98
2023-02-24T04:53:02.784Z,31.83
2023-02-24T04:55:33.100Z,29.00
2023-02-24T04:58:02.901Z,31.20
2023-02-24T05:00:35.434Z,33.47
2023-02-24T05:03:06.195Z,30.90
2023-02-24T05:05:35.409Z,28.60
2023-02-24T05:08:10.972Z,29.63
2023-02-24T05:10:38.242Z,27.50
2023-02-24T05:13:06.698Z,29.35
2023-02-24T05:15:33.843Z,27.70
2023-02-24T05:18:01.492Z,31.42
2023-02-24T05:20:47.488Z,31.00
2023-02-24T05:23:14.150Z,28.23
2023-02-24T05:25:43.029Z,29.02
2023-02-24T05:28:10.056Z,30.15
2023-02-24T05:30:36.716Z,33.63
2023-02-24T05:33:03.098Z,32.50
2023-02-24T05:35:32.189Z,32.35
2023-02-24T05:37:59.189Z,32.17
2023-02-24T05:40:25.667Z,30.17
2023-02-24T05:42:52.120Z,32.17
2023-02-24T05:45:18.481Z,33.47
2023-02-24T05:47:47.283Z,34.88
2023-02-24T05:50:13.822Z,30.92
2023-02-24T05:52:40.232Z,34.33
2023-02-24T05:55:07.237Z,37.45
2023-02-24T05:57:35.657Z,36.75
2023-02-24T06:00:12.551Z,36.28
2023-02-24T06:02:39.032Z,35.80
2023-02-24T06:05:08.681Z,33.78
2023-02-24T06:07:35.273Z,34.63
2023-02-24T06:10:01.917Z,34.55
2023-02-24T06:12:31.317Z,34.67
2023-02-24T06:14:58.283Z,34.90
2023-02-24T06:17:25.582Z,32.72
2023-02-24T06:19:53.050Z,40.78
2023-02-24T06:22:21.509Z,37.00
2023-02-24T06:24:49.232Z,39.03
2023-02-24T06:27:21.267Z,36.78
2023-02-24T06:29:51.360Z,40.47
2023-02-24T06:32:19.501Z,39.42
2023-02-24T06:34:46.230Z,40.13
2023-02-24T06:37:14.187Z,36.40
2023-02-24T06:39:40.742Z,36.13
2023-02-24T06:42:08.895Z,38.45
2023-02-24T06:44:36.876Z,36.47
2023-02-24T06:47:03.294Z,40.13
2023-02-24T06:49:29.687Z,38.78
2023-02-24T06:51:57.492Z,39.63
2023-02-24T06:54:30.493Z,40.97
2023-02-24T06:56:58.681Z,38.17
2023-02-24T06:59:28.471Z,40.17
2023-02-24T07:01:56.221Z,37.03
2023-02-24T07:04:27.036Z,38.40
2023-02-24T07:06:57.270Z,35.00
2023-02-24T07:09:26.496Z,38.67
2023-02-24T07:11:55.773Z,42.20
2023-02-24T07:14:24.142Z,36.05
2023-02-24T07:16:58.078Z,35.47
2023-02-24T07:19:27.263Z,37.47
2023-02-24T07:22:01.935Z,37.55
2023-02-24T07:24:33.414Z,39.22
2023-02-24T07:27:02.120Z,35.05
2023-02-24T07:29:30.199Z,37.92
2023-02-24T07:32:05.458Z,34.22
2023-02-24T07:34:33.567Z,37.72
2023-02-24T07:37:02.647Z,32.10
2023-02-24T07:39:29.083Z,35.30
2023-02-24T07:41:55.463Z,35.25
2023-02-24T07:44:24.181Z,34.03
2023-02-24T07:46:51.515Z,34.58
2023-02-24T07:49:22.065Z,33.50
2023-02-24T07:51:52.909Z,37.03
2023-02-24T07:54:21.165Z,35.30
2023-02-24T07:56:56.242Z,33.83
2023-02-24T07:59:24.459Z,29.88
2023-02-24T08:01:50.837Z,40.00
2023-02-24T08:04:20.328Z,60.75
2023-02-24T08:06:50.195Z,42.17
2023-02-24T08:09:20.040Z,37.22
2023-02-24T08:11:52.191Z,31.77
2023-02-24T08:14:35.348Z,32.60
2023-02-24T08:17:05.281Z,29.10
2023-02-24T08:19:39.336Z,28.48
2023-02-24T08:24:55.294Z,30.52
2023-02-24T08:27:25.258Z,32.35
2023-02-24T08:29:59.836Z,28.13
2023-02-24T08:32:46.484Z,31.42
2023-02-24T08:35:15.612Z,29.27
2023-02-24T08:37:47.134Z,29.80
2023-02-24T08:40:34.264Z,26.15
2023-02-24T08:43:25.216Z,27.50
2023-02-24T08:45:59.388Z,25.15
2023-02-24T08:48:38.134Z,26.13
2023-02-24T08:51:17.577Z,26.88
2023-02-24T08:53:46.614Z,28.15
2023-02-24T08:56:23.955Z,26.17
2023-02-24T08:58:57.214Z,29.15
2023-02-24T09:01:34.525Z,30.65
2023-02-24T09:04:10.396Z,26.23
2023-02-24T09:06:43.780Z,28.55
2023-02-24T09:09:17.490Z,27.00
2023-02-24T09:11:46.547Z,25.02
2023-02-24T09:14:26.688Z,26.75
2023-02-24T09:17:03.736Z,24.05
2023-02-24T09:19:51.300Z,23.52
2023-02-24T09:22:31.798Z,26.50
2023-02-24T09:25:19.073Z,22.85
2023-02-24T09:27:52.335Z,22.52
2023-02-24T09:30:36.375Z,24.02
2023-02-24T09:33:19.090Z,24.45
2023-02-24T09:36:09.530Z,22.35
2023-02-24T09:38:59.715Z,25.55
2023-02-24T09:41:56.749Z,25.38
2023-02-24T09:44:27.319Z,28.15
2023-02-24T09:47:01.010Z,25.33
2023-02-24T09:49:49.217Z,27.13
2023-02-24T09:52:17.459Z,24.60
2023-02-24T09:55:06.668Z,24.48
2023-02-24T09:57:55.010Z,24.95
2023-02-24T10:00:25.467Z,23.75
2023-02-24T10:03:19.549Z,26.65
2023-02-24T10:05:58.962Z,25.48
2023-02-24T10:08:31.925Z,25.25
2023-02-24T10:11:06.968Z,25.10
2023-02-24T10:13:37.388Z,25.38
2023-02-24T10:16:07.123Z,22.00
2023-02-24T10:18:45.497Z,20.33
2023-02-24T10:22:00.140Z,25.45
2023-02-24T10:24:37.553Z,23.60
2023-02-24T10:27:17.996Z,22.25
2023-02-24T10:29:55.645Z,22.00
2023-02-24T10:32:51.875Z,19.85
2023-02-24T10:35:21.106Z,21.35
2023-02-24T10:37:49.117Z,21.05
2023-02-24T10:40:43.675Z,20.13
2023-02-24T10:43:17.576Z,19.98
2023-02-24T10:45:45.575Z,16.63
2023-02-24T10:48:40.230Z,18.00
2023-02-24T10:51:19.483Z,17.42
2023-02-24T10:53:53.182Z,16.58
2023-02-24T10:56:39.057Z,16.52
2023-02-24T10:59:30.920Z,14.07
2023-02-24T11:02:16.649Z,16.85
2023-02-24T11:04:58.473Z,15.80
2023-02-24T11:07:25.491Z,16.27
2023-02-24T11:10:12.233Z,19.60
2023-02-24T11:13:09.366Z,15.70
2023-02-24T11:15:57.365Z,16.90
2023-02-24T11:18:26.106Z,16.38
2023-02-24T11:21:04.100Z,16.73
2023-02-24T11:23:34.898Z,18.80
2023-02-24T11:26:12.053Z,14.85
2023-02-24T11:28:50.379Z,15.73
2023-02-24T11:31:21.865Z,15.20
2023-02-24T11:34:12.928Z,15.48
2023-02-24T11:37:16.626Z,18.00
2023-02-24T11:39:45.763Z,17.15
2023-02-24T11:42:17.596Z,13.55
2023-02-24T11:44:53.942Z,16.95
2023-02-24T11:47:26.746Z,16.23
2023-02-24T11:50:14.088Z,16.65
2023-02-24T11:52:43.491Z,13.40
2023-02-24T11:55:42.943Z,19.85
2023-02-24T11:58:30.993Z,16.17
2023-02-24T12:01:04.844Z,15.25
2023-02-24T12:04:05.369Z,14.80
2023-02-24T12:06:58.640Z,16.65
2023-02-24T12:09:30.683Z,15.10
2023-02-24T12:12:01.972Z,14.35
2023-02-24T12:14:40.109Z,15.25
2023-02-24T12:17:49.480Z,12.52
2023-02-24T12:20:21.693Z,18.48
2023-02-24T12:22:58.330Z,16.52
2023-02-24T12:25:37.777Z,17.67
2023-02-24T12:28:14.301Z,16.15
2023-02-24T12:31:00.940Z,17.55
2023-02-24T12:33:42.755Z,15.38
2023-02-24T12:36:30.823Z,15.65
2023-02-24T12:39:15.805Z,14.43
2023-02-24T12:41:52.476Z,15.95
2023-02-24T12:44:31.014Z,16.92
2023-02-24T12:47:11.758Z,13.75
2023-02-24T12:50:11.913Z,13.20
2023-02-24T12:52:56.391Z,15.30
2023-02-24T13:01:03.994Z,18.50
2023-02-24T13:04:03.847Z,16.45
2023-02-24T13:06:53.102Z,15.32
2023-02-24T13:09:22.156Z,14.40
2023-02-24T13:12:16.013Z,14.18
2023-02-24T13:14:42.785Z,15.87
2023-02-24T13:17:09.059Z,14.48
2023-02-24T13:19:35.738Z,12.90
2023-02-24T13:22:27.428Z,13.60
2023-02-24T13:25:09.463Z,19.67
2023-02-24T13:27:38.827Z,15.80
2023-02-24T13:30:14.376Z,15.88
2023-02-24T13:32:44.314Z,16.33
2023-02-24T13:35:16.364Z,15.18
2023-02-24T13:37:45.009Z,14.70
2023-02-24T13:40:23.459Z,13.40
2023-02-24T13:42:57.314Z,15.45
2023-02-24T13:45:32.088Z,18.30
2023-02-24T13:48:26.573Z,15.02
2023-02-24T13:51:02.329Z,14.63
2023-02-24T13:54:07.646Z,15.10
2023-02-24T13:56:52.520Z,17.08
2023-02-24T13:59:24.494Z,16.48
2023-02-24T14:01:58.105Z,16.05
2023-02-24T14:04:30.768Z,14.05
2023-02-24T14:07:00.770Z,14.82
2023-02-24T14:09:48.657Z,14.45
2023-02-24T14:12:19.092Z,13.40
2023-02-24T14:14:51.518Z,15.23
2023-02-24T14:17:28.675Z,13.60
2023-02-24T14:20:22.095Z,12.73
2023-02-24T14:22:53.019Z,11.30
2023-02-24T14:25:22.040Z,10.40
2023-02-24T14:27:50.542Z,10.68
2023-02-24T14:30:30.689Z,15.43
2023-02-24T14:32:57.334Z,13.23
2023-02-24T14:35:30.674Z,12.88
2023-02-24T14:37:57.520Z,11.43
2023-02-24T14:40:25.505Z,13.00
2023-02-24T14:42:54.381Z,11.20
2023-02-24T14:45:25.301Z,10.98
2023-02-24T14:47:55.731Z,14.07
2023-02-24T14:50:30.648Z,11.55
2023-02-24T14:53:10.463Z,12.27
2023-02-24T14:55:42.594Z,9.98
2023-02-24T14:58:21.013Z,11.18
2023-02-24T15:00:50.944Z,10.25
2023-02-24T15:03:23.814Z,11.90
2023-02-24T15:05:52.975Z,10.38
2023-02-24T15:08:34.575Z,10.30
2023-02-24T15:11:02.654Z,10.07
2023-02-24T15:13:46.828Z,11.68
2023-02-24T15:16:26.089Z,9.30
2023-02-24T15:18:55.605Z,9.63
2023-02-24T15:21:39.080Z,13.50
2023-02-24T15:24:19.558Z,11.15
2023-02-24T15:27:13.866Z,9.75
2023-02-24T15:29:41.570Z,9.15
2023-02-24T15:32:16.814Z,13.93
2023-02-24T15:34:45.824Z,11.57
2023-02-24T15:37:19.777Z,10.07
2023-02-24T15:39:46.180Z,13.88
2023-02-24T15:42:28.432Z,11.48
2023-02-24T15:45:00.373Z,12.32
2023-02-24T15:47:31.276Z,11.00
2023-02-24T15:49:57.709Z,11.10
2023-02-24T15:52:26.693Z,10.32
2023-02-24T15:54:54.943Z,10.13
2023-02-24T15:57:21.607Z,10.52
2023-02-24T15:59:48.392Z,6.43
2023-02-24T16:02:19.810Z,14.55
2023-02-24T16:04:47.509Z,9.57
2023-02-24T16:07:19.313Z,8.10
2023-02-24T16:09:46.778Z,9.05
2023-02-24T16:12:16.201Z,10.68
2023-02-24T16:14:43.276Z,8.70
2023-02-24T16:17:19.840Z,12.10
2023-02-24T16:19:46.196Z,10.38
2023-02-24T16:22:12.540Z,9.75
2023-02-24T16:24:38.918Z,11.80
2023-02-24T16:27:06.069Z,7.63
2023-02-24T16:29:32.455Z,14.60
2023-02-24T16:32:00.161Z,9.00
2023-02-24T16:34:26.620Z,9.00
2023-02-24T16:36:52.990Z,13.43
2023-02-24T16:39:19.317Z,9.32
2023-02-24T16:41:45.635Z,12.45
2023-02-24T16:44:12.080Z,9.23
2023-02-24T16:46:41.049Z,13.30
2023-02-24T16:49:10.213Z,9.65
2023-02-24T16:51:39.779Z,9.25
2023-02-24T16:54:06.109Z,10.07
2023-02-24T16:56:35.020Z,12.23
2023-02-24T16:59:01.425Z,9.40
2023-02-24T17:01:27.805Z,10.02
2023-02-24T17:03:54.282Z,10.05
2023-02-24T17:06:22.536Z,10.43
2023-02-24T17:08:50.086Z,8.73
2023-02-24T17:11:19.828Z,8.63
2023-02-24T17:13:46.346Z,9.77
2023-02-24T17:16:13.320Z,13.90
2023-02-24T17:18:39.664Z,15.32
2023-02-24T17:21:06.001Z,10.07
2023-02-24T17:23:32.455Z,11.73
2023-02-24T17:26:00.779Z,9.73
2023-02-24T17:28:27.367Z,11.68
2023-02-24T17:30:53.861Z,12.43
2023-02-24T17:33:20.243Z,10.65
2023-02-24T17:35:47.920Z,11.10
2023-02-24T17:38:22.199Z,9.65
2023-02-24T17:40:48.802Z,11.05
2023-02-24T17:43:15.312Z,9.40
2023-02-24T17:45:44.719Z,12.93
2023-02-24T17:48:12.670Z,10.50
2023-02-24T17:50:42.168Z,11.05
2023-02-24T17:53:08.600Z,8.15
2023-02-24T17:55:34.998Z,7.05
2023-02-24T17:58:01.326Z,11.10
2023-02-24T18:00:28.435Z,7.32
2023-02-24T18:02:55.088Z,6.25
2023-02-24T18:05:21.546Z,6.05
2023-02-24T18:07:48.364Z,7.13
2023-02-24T18:10:14.749Z,8.80
2023-02-24T18:12:41.087Z,5.95
2023-02-24T18:15:09.402Z,6.20
2023-02-24T18:17:37.281Z,5.80
2023-02-24T18:20:05.429Z,6.05
2023-02-24T18:22:31.888Z,7.22
2023-02-24T18:24:59.141Z,8.25
2023-02-24T18:27:25.578Z,6.22
2023-02-24T18:29:51.912Z,8.07
2023-02-24T18:32:18.557Z,5.28
2023-02-24T18:34:45.003Z,5.38
2023-02-24T18:37:11.455Z,5.30
2023-02-24T18:39:37.786Z,6.45
2023-02-24T18:42:04.184Z,9.23
2023-02-24T18:44:31.040Z,7.53
2023-02-24T18:46:57.373Z,5.53
2023-02-24T18:49:23.774Z,6.53
2023-02-24T18:51:50.240Z,7.80
2023-02-24T18:54:16.609Z,4.97
2023-02-24T18:56:43.060Z,9.15
2023-02-24T18:59:09.474Z,7.50
2023-02-24T19:01:38.581Z,8.93
2023-02-24T19:04:06.563Z,7.47
2023-02-24T19:06:33.482Z,8.80
2023-02-24T19:09:01.933Z,7.18
2023-02-24T19:11:29.175Z,9.85
2023-02-24T19:13:56.184Z,11.23
2023-02-24T19:16:22.909Z,10.57
2023-02-24T19:18:50.661Z,6.63
2023-02-24T19:21:17.089Z,6.65
2023-02-24T19:23:43.465Z,10.50
2023-02-24T19:26:21.353Z,9.27
2023-02-24T19:28:48.171Z,8.13
2023-02-24T19:31:18.226Z,6.93
2023-02-24T19:33:45.268Z,9.93
2023-02-24T19:36:12.002Z,10.35
2023-02-24T19:38:41.070Z,11.25
2023-02-24T19:41:08.792Z,9.98
2023-02-24T19:43:35.153Z,9.77
2023-02-24T19:46:06.196Z,8.48
2023-02-24T19:48:33.656Z,10.32
2023-02-24T19:51:06.675Z,11.65
2023-02-24T19:53:33.029Z,8.70
2023-02-24T19:55:59.854Z,12.93
2023-02-24T19:58:26.345Z,9.38
2023-02-24T20:00:52.816Z,10.55
2023-02-24T20:03:20.216Z,10.98
2023-02-24T20:05:46.915Z,11.07
2023-02-24T20:08:13.418Z,11.38
2023-02-24T20:10:40.029Z,10.73
2023-02-24T20:13:06.791Z,10.50
2023-02-24T20:15:34.295Z,12.60
2023-02-24T20:18:04.628Z,10.02
2023-02-24T20:20:31.052Z,8.20
2023-02-24T20:22:57.486Z,9.20
2023-02-24T20:25:24.310Z,12.60
2023-02-24T20:27:50.665Z,12.02
2023-02-24T20:30:17.177Z,10.38
2023-02-24T20:32:43.812Z,9.85
2023-02-24T20:35:10.492Z,10.93
2023-02-24T20:37:36.907Z,10.02
2023-02-24T20:40:03.478Z,12.88
2023-02-24T20:42:29.851Z,15.05
2023-02-24T20:44:56.249Z,11.75
2023-02-24T20:47:22.584Z,13.10
2023-02-24T20:49:48.955Z,12.05
2023-02-24T20:52:15.270Z,12.82
2023-02-24T20:54:43.231Z,9.93
2023-02-24T20:57:09.626Z,11.23
2023-02-24T20:59:39.970Z,12.45
2023-02-24T21:02:06.331Z,10.63
2023-02-24T21:04:32.775Z,10.07
2023-02-24T21:06:59.411Z,13.07
2023-02-24T21:09:25.862Z,11.18
2023-02-24T21:11:52.270Z,13.75
2023-02-24T21:14:18.740Z,11.52
2023-02-24T21:16:49.544Z,10.25
2023-02-24T21:19:17.720Z,11.82
2023-02-24T21:21:44.103Z,9.52
2023-02-24T21:24:10.448Z,9.68
2023-02-24T21:26:36.881Z,11.73
2023-02-24T21:29:03.528Z,10.48
2023-02-24T21:31:29.967Z,12.98
2023-02-24T21:33:56.428Z,12.23
2023-02-24T21:36:25.889Z,9.27
2023-02-24T21:38:52.905Z,11.07
2023-02-24T21:41:21.798Z,10.52
2023-02-24T21:43:51.628Z,11.55
2023-02-24T21:46:18.032Z,8.75
2023-02-24T21:48:44.673Z,11.02
2023-02-24T21:51:12.516Z,10.35
2023-02-24T21:53:40.931Z,10.32
2023-02-24T21:56:19.258Z,5.75
2023-02-24T21:58:56.407Z,5.97
2023-02-24T22:01:25.473Z,6.25
2023-02-24T22:03:55.996Z,4.80
2023-02-24T22:06:23.154Z,4.22
2023-02-24T22:08:49.698Z,4.88
2023-02-24T22:11:17.495Z,4.03
2023-02-24T22:13:44.755Z,5.15
2023-02-24T22:16:18.253Z,5.45
2023-02-24T22:18:46.780Z,4.72
2023-02-24T22:21:18.900Z,3.63
2023-02-24T22:23:46.157Z,3.90
2023-02-24T22:26:12.629Z,5.68
2023-02-24T22:28:40.628Z,4.60
2023-02-24T22:31:08.130Z,7.97
2023-02-24T22:33:36.230Z,4.20
2023-02-24T22:36:06.758Z,4.60
2023-02-24T22:38:33.862Z,6.65
2023-02-24T22:41:01.705Z,6.82
2023-02-24T22:43:28.762Z,8.48
2023-02-24T22:46:06.055Z,10.57
2023-02-24T22:48:34.124Z,8.48
2023-02-24T22:51:02.290Z,6.32
2023-02-24T22:53:29.768Z,4.78
2023-02-24T22:55:56.852Z,6.47
2023-02-24T22:58:24.044Z,5.72
2023-02-24T23:00:52.522Z,14.15
2023-02-24T23:03:24.387Z,8.20
2023-02-24T23:06:02.235Z,7.10
2023-02-24T23:08:30.169Z,7.65
2023-02-24T23:10:56.653Z,10.68
2023-02-24T23:13:23.050Z,5.82
2023-02-24T23:15:49.566Z,8.77
2023-02-24T23:18:16.600Z,8.30
2023-02-24T23:20:44.619Z,6.72
2023-02-24T23:23:11.533Z,10.73
2023-02-24T23:25:38.638Z,10.25
2023-02-24T23:28:05.834Z,7.80
2023-02-24T23:30:32.205Z,7.78
2023-02-24T23:32:59.829Z,10.50
2023-02-24T23:35:26.253Z,6.97
2023-02-24T23:37:52.585Z,11.05
2023-02-24T23:40:25.714Z,12.60
2023-02-24T23:42:52.913Z,8.97
2023-02-24T23:45:19.660Z,9.20
2023-02-24T23:47:46.057Z,10.68
2023-02-24T23:50:13.469Z,13.45
2023-02-24T23:52:39.844Z,9.68
2023-02-24T23:55:06.979Z,8.68
2023-02-24T23:57:33.382Z,11.65
2023-02-24T23:59:59.854Z,9.35
